Flight Training


We provide structured training required to obtain a pilots certificate ranging from a Private Pilot up to ATP flying for the major airlines.

If your desire to fly is for personal pleasure the first step is to find a professional FAA licensed flight instructor to begin your journey.

The one-hour introductory flight with an instructor lasts one hour and features a log book and a six-month subscription to Flight Training magazine. After flying you to the training area, your instructor will let you test the controls. Call us now

 

Aviation Weather

Available data for KLDJ from the past 2 hours
LINDEN, NJ
Metar
KLDJ 300655Z AUTO 00000KT 10SM OVC009 13/11 A3013 RMK AO2 T01330110

06:55 UTC

Wind: 0° 0kt

Visibility: 10 SM

Sky: OVC 900 ft

Temp: 13 deg C / 55.4 deg F

Dewpoint: 11 deg C / 51.8 deg F

Pressure: 30.13 inHg


Available data for KEWR from the past hour
NEWARK, NJ
TAF
KEWR 300547Z 3006/3112 VRB05KT P6SM BKN008 OVC015 TEMPO 3010/3014 6SM BR FM301700 13007KT 5SM BR SCT007 BKN015 FM302300 VRB04KT 4SM -DZ BR OVC007 FM310700 VRB04KT 4SM -DZ BR OVC004

Our planes

Some of our students